createdAt,value
2019-04-16T00:01:24.205Z,2.40
2019-04-16T00:03:57.717Z,2.03
2019-04-16T00:07:02.549Z,2.97
2019-04-16T00:09:40.592Z,2.53
2019-04-16T00:12:24.026Z,2.00
2019-04-16T00:14:55.619Z,2.77
2019-04-16T00:17:24.420Z,2.13
2019-04-16T00:19:53.123Z,2.10
2019-04-16T00:22:43.921Z,2.20
2019-04-16T00:25:12.704Z,2.70
2019-04-16T00:27:41.478Z,2.20
2019-04-16T00:30:10.284Z,2.53
2019-04-16T00:32:42.385Z,1.97
2019-04-16T00:35:09.655Z,2.23
2019-04-16T00:37:38.365Z,2.30
2019-04-16T00:40:09.484Z,2.60
2019-04-16T00:42:38.273Z,2.23
2019-04-16T00:45:07.035Z,2.33
2019-04-16T00:47:35.766Z,2.70
2019-04-16T00:50:06.141Z,2.07
2019-04-16T00:52:37.005Z,2.67
2019-04-16T00:55:05.388Z,1.97
2019-04-16T00:57:34.113Z,2.23
2019-04-16T01:00:02.850Z,2.73
2019-04-16T01:02:31.616Z,2.57
2019-04-16T01:05:00.382Z,2.53
2019-04-16T01:07:29.162Z,2.37
2019-04-16T01:09:57.952Z,2.47
2019-04-16T01:12:26.643Z,2.33
2019-04-16T01:14:58.727Z,2.80
2019-04-16T01:17:25.862Z,2.33
2019-04-16T01:19:54.640Z,2.40
2019-04-16T01:22:23.366Z,2.73
2019-04-16T01:24:52.693Z,2.77
2019-04-16T01:27:29.773Z,2.60
2019-04-16T01:29:58.575Z,2.23
2019-04-16T01:32:45.782Z,3.30
2019-04-16T01:35:52.753Z,2.43
2019-04-16T01:38:28.586Z,2.50
2019-04-16T01:41:01.869Z,2.07
2019-04-16T01:43:30.620Z,2.60
2019-04-16T01:46:01.492Z,2.53
2019-04-16T01:48:29.740Z,2.10
2019-04-16T01:50:58.520Z,2.47
2019-04-16T01:53:27.222Z,2.37
2019-04-16T01:55:57.057Z,2.80
2019-04-16T01:58:26.483Z,2.77
2019-04-16T02:00:55.192Z,2.20
2019-04-16T02:03:25.225Z,2.90
2019-04-16T02:05:54.897Z,2.80
2019-04-16T02:08:24.267Z,2.50
2019-04-16T02:10:52.945Z,2.80
2019-04-16T02:13:21.817Z,2.87
2019-04-16T02:15:53.536Z,2.10
2019-04-16T02:18:21.075Z,2.50
2019-04-16T02:20:49.902Z,2.83
2019-04-16T02:23:18.638Z,3.03
2019-04-16T02:25:48.469Z,2.53
2019-04-16T02:28:17.803Z,2.33
2019-04-16T02:30:46.521Z,2.97
2019-04-16T02:33:15.285Z,2.37
2019-04-16T02:35:43.997Z,2.47
2019-04-16T02:38:13.818Z,3.10
2019-04-16T02:40:43.045Z,2.23
2019-04-16T02:43:11.731Z,2.50
2019-04-16T02:45:40.431Z,2.90
2019-04-16T02:48:15.500Z,3.27
2019-04-16T02:51:05.344Z,2.60
2019-04-16T02:53:54.466Z,2.37
2019-04-16T02:56:40.517Z,2.87
2019-04-16T02:59:13.755Z,2.97
2019-04-16T03:02:02.507Z,2.73
2019-04-16T03:04:36.469Z,2.30
2019-04-16T03:07:05.274Z,2.80
2019-04-16T03:09:34.038Z,2.73
2019-04-16T03:12:02.845Z,2.70
2019-04-16T03:14:31.736Z,2.77
2019-04-16T03:17:25.359Z,2.23
2019-04-16T03:19:54.641Z,2.60
2019-04-16T03:22:23.367Z,1.87
2019-04-16T03:24:52.085Z,2.83
2019-04-16T03:27:22.249Z,2.60
2019-04-16T03:29:51.311Z,3.00
2019-04-16T03:32:20.045Z,2.47
2019-04-16T03:34:50.568Z,2.63
2019-04-16T03:37:19.252Z,3.00
2019-04-16T03:39:48.019Z,2.80
2019-04-16T03:42:16.783Z,2.10
2019-04-16T03:44:45.610Z,2.40
2019-04-16T03:47:15.777Z,2.60
2019-04-16T03:49:44.801Z,2.40
2019-04-16T03:52:13.535Z,2.57
2019-04-16T03:54:42.296Z,2.63
2019-04-16T03:57:11.023Z,2.33
2019-04-16T03:59:40.692Z,3.10
2019-04-16T04:02:09.529Z,2.93
2019-04-16T04:04:38.252Z,2.83
2019-04-16T04:07:09.035Z,3.13
2019-04-16T04:09:37.369Z,2.60
2019-04-16T04:12:06.073Z,2.53
2019-04-16T04:14:34.810Z,2.70
2019-04-16T04:17:06.608Z,2.50
2019-04-16T04:19:34.047Z,2.83
2019-04-16T04:22:02.843Z,2.60
2019-04-16T04:24:32.179Z,2.80
2019-04-16T04:27:01.055Z,2.63
2019-04-16T04:29:29.926Z,2.90
2019-04-16T04:32:03.042Z,2.37
2019-04-16T04:34:29.084Z,2.47
2019-04-16T04:36:59.872Z,2.93
2019-04-16T04:39:28.309Z,3.13
2019-04-16T04:41:57.268Z,3.20
2019-04-16T04:44:26.068Z,2.40
2019-04-16T04:46:54.807Z,2.83
2019-04-16T04:49:23.512Z,2.17
2019-04-16T04:51:52.334Z,2.40
2019-04-16T04:54:22.613Z,2.97
2019-04-16T04:56:51.622Z,2.57
2019-04-16T04:59:20.321Z,2.40
2019-04-16T05:01:49.030Z,2.37
2019-04-16T05:04:29.238Z,2.83
2019-04-16T05:07:00.301Z,2.97
2019-04-16T05:09:29.569Z,2.67
2019-04-16T05:11:59.535Z,2.13
2019-04-16T05:14:28.351Z,2.33
2019-04-16T05:16:57.096Z,2.33
2019-04-16T05:19:25.906Z,2.87
2019-04-16T05:21:54.621Z,2.37
2019-04-16T05:24:23.375Z,2.73
2019-04-16T05:26:52.237Z,2.63
2019-04-16T05:29:20.994Z,2.77
2019-04-16T05:31:49.830Z,3.30
2019-04-16T05:34:18.542Z,2.63
2019-04-16T05:36:48.134Z,2.90
2019-04-16T05:39:17.037Z,2.93
2019-04-16T05:41:45.808Z,2.50
2019-04-16T05:44:14.599Z,2.70
2019-04-16T05:46:46.651Z,2.93
2019-04-16T05:49:13.775Z,2.40
2019-04-16T05:51:42.536Z,2.00
2019-04-16T05:54:25.051Z,2.80
2019-04-16T05:56:55.657Z,2.43
2019-04-16T05:59:24.426Z,2.70
2019-04-16T06:01:58.549Z,2.93
2019-04-16T06:04:27.272Z,2.40
2019-04-16T06:06:55.993Z,2.83
2019-04-16T06:09:24.776Z,3.03
2019-04-16T06:11:53.513Z,2.97
2019-04-16T06:14:41.285Z,2.27
2019-04-16T06:17:31.752Z,2.47
2019-04-16T06:20:19.109Z,2.53
2019-04-16T06:23:02.914Z,2.50
2019-04-16T06:25:40.993Z,2.83
2019-04-16T06:28:30.650Z,2.53
2019-04-16T06:31:21.215Z,2.47
2019-04-16T06:34:07.464Z,2.43
2019-04-16T06:36:52.864Z,2.47
2019-04-16T06:39:46.421Z,2.43
2019-04-16T06:42:22.682Z,2.50
2019-04-16T06:44:55.418Z,2.47
2019-04-16T06:47:58.095Z,2.40
2019-04-16T06:50:44.604Z,2.70
2019-04-16T06:53:23.813Z,2.60
2019-04-16T06:56:05.487Z,2.33
2019-04-16T06:58:57.458Z,2.47
2019-04-16T07:01:36.781Z,2.80
2019-04-16T07:04:17.645Z,2.50
2019-04-16T07:07:09.380Z,2.57
2019-04-16T07:09:57.746Z,2.53
2019-04-16T07:12:29.292Z,2.60
2019-04-16T07:14:58.056Z,2.73
2019-04-16T07:17:33.161Z,2.40
2019-04-16T07:19:57.375Z,2.70
2019-04-16T07:22:26.170Z,2.60
2019-04-16T07:25:03.805Z,3.03
2019-04-16T07:27:57.437Z,2.97
2019-04-16T07:30:29.939Z,2.63
2019-04-16T07:33:17.887Z,3.10
2019-04-16T07:36:00.733Z,2.30
2019-04-16T07:38:36.831Z,3.50
2019-04-16T07:41:17.196Z,2.97
2019-04-16T07:44:08.098Z,2.27
2019-04-16T07:46:56.207Z,3.00
2019-04-16T07:49:38.544Z,2.60
2019-04-16T07:52:25.103Z,2.70
2019-04-16T07:55:18.627Z,2.80
2019-04-16T07:57:47.312Z,2.43
2019-04-16T08:00:16.125Z,3.07
2019-04-16T08:02:44.939Z,2.83
2019-04-16T08:05:13.687Z,2.63
2019-04-16T08:07:42.428Z,2.83
2019-04-16T08:10:11.215Z,2.80
2019-04-16T08:12:42.407Z,2.37
2019-04-16T08:15:14.813Z,3.00
2019-04-16T08:17:41.855Z,2.63
2019-04-16T08:20:10.634Z,2.93
2019-04-16T08:22:40.036Z,2.70
2019-04-16T08:25:09.108Z,2.20
2019-04-16T08:27:37.884Z,2.50
2019-04-16T08:30:08.305Z,2.90
2019-04-16T08:32:37.166Z,3.17
2019-04-16T08:35:06.143Z,3.03
2019-04-16T08:37:48.027Z,2.70
2019-04-16T08:40:08.861Z,3.07
2019-04-16T08:42:44.189Z,3.20
2019-04-16T08:45:08.452Z,2.63
2019-04-16T08:47:37.731Z,2.87
2019-04-16T08:50:06.693Z,3.13
2019-04-16T08:52:35.603Z,3.00
2019-04-16T08:55:04.493Z,2.93
2019-04-16T08:57:33.222Z,3.07
2019-04-16T09:00:02.008Z,3.23
2019-04-16T09:02:30.814Z,3.03
2019-04-16T09:04:59.744Z,2.97
2019-04-16T09:07:40.642Z,2.83
2019-04-16T09:10:18.095Z,3.13
2019-04-16T09:12:47.595Z,2.93
2019-04-16T09:15:19.244Z,3.20
2019-04-16T09:17:57.349Z,3.40
2019-04-16T09:20:31.004Z,3.40
2019-04-16T09:23:00.050Z,3.33
2019-04-16T09:25:35.825Z,3.33
2019-04-16T09:28:31.121Z,3.60
2019-04-16T09:31:23.200Z,3.37
2019-04-16T09:34:05.551Z,3.67
2019-04-16T09:36:56.445Z,3.33
2019-04-16T09:39:32.652Z,3.40
2019-04-16T09:42:01.432Z,3.80
2019-04-16T09:44:32.489Z,3.87
2019-04-16T09:47:00.725Z,3.80
2019-04-16T09:49:29.482Z,3.70
2019-04-16T09:51:58.309Z,4.43
2019-04-16T09:54:27.102Z,3.80
2019-04-16T09:56:59.684Z,3.43
2019-04-16T09:59:52.735Z,3.57
2019-04-16T10:02:24.749Z,3.80
2019-04-16T10:04:53.649Z,3.93
2019-04-16T10:07:22.486Z,3.80
2019-04-16T10:09:54.394Z,3.50
2019-04-16T10:12:21.719Z,3.40
2019-04-16T10:14:50.571Z,4.00
2019-04-16T10:17:19.575Z,3.93
2019-04-16T10:19:48.412Z,4.10
2019-04-16T10:22:17.250Z,3.70
2019-04-16T10:25:03.925Z,3.60
2019-04-16T10:27:35.736Z,3.83
2019-04-16T10:30:11.239Z,3.80
2019-04-16T10:32:39.986Z,4.00
2019-04-16T10:35:08.821Z,4.07
2019-04-16T10:37:37.556Z,3.60
2019-04-16T10:40:34.615Z,4.13
2019-04-16T10:43:25.053Z,4.47
2019-04-16T10:46:15.826Z,3.90
2019-04-16T10:48:56.425Z,3.53
2019-04-16T10:51:39.764Z,3.73
2019-04-16T10:54:20.359Z,3.53
2019-04-16T10:57:10.132Z,3.87
2019-04-16T10:59:55.094Z,3.63
2019-04-16T11:02:41.775Z,4.40
2019-04-16T11:05:34.936Z,4.00
2019-04-16T11:08:04.313Z,3.67
2019-04-16T11:10:34.749Z,4.43
2019-04-16T11:13:05.507Z,3.83
2019-04-16T11:15:34.758Z,4.03
2019-04-16T11:18:04.244Z,3.80
2019-04-16T11:20:33.256Z,3.93
2019-04-16T11:23:06.745Z,4.00
2019-04-16T11:25:33.775Z,4.33
2019-04-16T11:28:02.729Z,4.20
2019-04-16T11:30:37.463Z,4.23
2019-04-16T11:33:06.254Z,4.03
2019-04-16T11:35:35.089Z,4.33
2019-04-16T11:38:04.252Z,4.37
2019-04-16T11:40:33.079Z,4.63
2019-04-16T11:43:01.991Z,4.23
2019-04-16T11:45:30.771Z,4.60
2019-04-16T11:47:59.519Z,4.47
2019-04-16T11:50:28.246Z,4.97
2019-04-16T11:52:58.179Z,3.90
2019-04-16T11:55:27.445Z,4.97
2019-04-16T11:57:56.721Z,4.70
2019-04-16T12:00:36.122Z,4.23
2019-04-16T12:03:15.325Z,4.63
2019-04-16T12:06:28.327Z,4.60
2019-04-16T12:09:13.779Z,4.40
2019-04-16T12:11:48.731Z,4.47
2019-04-16T12:14:43.524Z,5.03
2019-04-16T12:17:27.378Z,5.17
2019-04-16T12:20:15.191Z,4.73
2019-04-16T12:22:52.028Z,4.80
2019-04-16T12:25:26.650Z,4.33
2019-04-16T12:28:18.853Z,5.00
2019-04-16T12:31:05.523Z,4.90
2019-04-16T12:33:56.172Z,4.80
2019-04-16T12:36:35.714Z,4.53
2019-04-16T12:39:23.520Z,4.43
2019-04-16T12:42:02.117Z,4.30
2019-04-16T12:44:50.026Z,4.43
2019-04-16T12:47:41.077Z,4.60
2019-04-16T12:50:27.423Z,4.77
2019-04-16T12:53:27.201Z,5.00
2019-04-16T12:56:13.895Z,4.57
2019-04-16T12:58:58.589Z,4.10
2019-04-16T13:01:45.196Z,3.97
2019-04-16T13:04:28.175Z,4.30
2019-04-16T13:07:04.557Z,4.10
2019-04-16T13:09:42.047Z,4.10
2019-04-16T13:12:32.266Z,4.10
2019-04-16T13:15:33.214Z,3.23
2019-04-16T13:18:14.278Z,3.37
2019-04-16T13:21:17.137Z,3.97
2019-04-16T13:24:04.897Z,4.40
2019-04-16T13:26:39.492Z,4.27
2019-04-16T13:29:12.352Z,4.00
2019-04-16T13:31:41.299Z,4.67
2019-04-16T13:34:10.094Z,3.93
2019-04-16T13:36:38.887Z,4.20
2019-04-16T13:39:40.371Z,4.00
2019-04-16T13:42:09.540Z,3.83
2019-04-16T13:44:41.899Z,4.40
2019-04-16T13:47:10.700Z,4.03
2019-04-16T13:50:10.798Z,4.43
2019-04-16T13:52:39.615Z,4.20
2019-04-16T13:55:15.527Z,4.20
2019-04-16T13:57:50.079Z,4.07
2019-04-16T14:00:37.883Z,4.50
2019-04-16T14:03:10.510Z,4.50
2019-04-16T14:05:42.599Z,4.07
2019-04-16T14:08:09.777Z,4.60
2019-04-16T14:10:38.564Z,4.60
2019-04-16T14:13:12.132Z,4.90
2019-04-16T14:15:40.356Z,4.57
2019-04-16T14:18:08.232Z,3.87
2019-04-16T14:20:36.961Z,4.00
2019-04-16T14:23:05.847Z,4.33
2019-04-16T14:25:34.674Z,4.60
2019-04-16T14:28:03.782Z,4.73
2019-04-16T14:30:42.153Z,4.33
2019-04-16T14:33:10.200Z,4.67
2019-04-16T14:35:40.646Z,4.57
2019-04-16T14:38:09.378Z,4.20
2019-04-16T14:40:39.713Z,3.60
2019-04-16T14:43:12.748Z,3.63
2019-04-16T14:45:58.155Z,4.23
2019-04-16T14:48:20.015Z,3.50
2019-04-16T14:50:48.805Z,3.83
2019-04-16T14:53:29.932Z,4.30
2019-04-16T14:56:03.218Z,3.80
2019-04-16T14:58:49.427Z,4.07
2019-04-16T15:01:37.298Z,3.60
2019-04-16T15:04:23.353Z,2.80
2019-04-16T15:07:11.173Z,3.20
2019-04-16T15:10:08.185Z,3.10
2019-04-16T15:12:47.477Z,3.00
2019-04-16T15:15:25.629Z,2.80
2019-04-16T15:18:16.257Z,2.97
2019-04-16T15:21:03.736Z,2.40
2019-04-16T15:24:00.801Z,3.03
2019-04-16T15:26:54.963Z,2.97
2019-04-16T15:29:46.811Z,3.07
2019-04-16T15:32:36.831Z,3.10
2019-04-16T15:35:07.720Z,3.20
2019-04-16T15:37:57.879Z,3.10
2019-04-16T15:40:33.391Z,3.93
2019-04-16T15:43:27.191Z,3.43
2019-04-16T15:46:27.011Z,2.40
2019-04-16T15:49:28.476Z,3.17
2019-04-16T15:52:22.119Z,3.43
2019-04-16T15:55:08.255Z,3.77
2019-04-16T15:57:43.519Z,3.30
2019-04-16T16:00:20.640Z,3.73
2019-04-16T16:03:07.233Z,3.47
2019-04-16T16:05:43.421Z,3.37
2019-04-16T16:08:35.901Z,3.40
2019-04-16T16:11:08.388Z,4.10
2019-04-16T16:13:37.201Z,2.93
2019-04-16T16:16:09.952Z,4.20
2019-04-16T16:18:38.693Z,3.93
2019-04-16T16:21:06.907Z,4.17
2019-04-16T16:23:35.701Z,4.10
2019-04-16T16:26:04.481Z,3.27
2019-04-16T16:28:33.195Z,4.40
2019-04-16T16:31:01.944Z,4.30
2019-04-16T16:33:30.673Z,4.73
2019-04-16T16:36:00.326Z,4.23
2019-04-16T16:38:29.317Z,4.27
2019-04-16T16:40:58.212Z,4.20
2019-04-16T16:43:27.033Z,4.50
2019-04-16T16:46:07.527Z,4.93
2019-04-16T16:48:36.372Z,4.53
2019-04-16T16:51:05.113Z,5.43
2019-04-16T16:53:41.721Z,5.20
2019-04-16T16:56:24.425Z,4.33
2019-04-16T16:58:58.839Z,5.00
2019-04-16T17:01:45.366Z,4.67
2019-04-16T17:04:19.492Z,5.00
2019-04-16T17:06:48.405Z,4.43
2019-04-16T17:09:27.098Z,4.07
2019-04-16T17:11:57.257Z,4.70
2019-04-16T17:14:26.029Z,4.77
2019-04-16T17:16:54.754Z,4.87
2019-04-16T17:19:23.551Z,5.13
2019-04-16T17:21:52.387Z,4.97
2019-04-16T17:24:21.136Z,4.20
2019-04-16T17:26:50.682Z,4.03
2019-04-16T17:29:19.756Z,4.80
2019-04-16T17:31:48.706Z,5.30
2019-04-16T17:34:17.558Z,5.43
2019-04-16T17:36:46.346Z,5.07
2019-04-16T17:39:17.837Z,4.40
2019-04-16T17:41:59.185Z,4.27
2019-04-16T17:45:00.079Z,4.33
2019-04-16T17:47:50.996Z,4.73
2019-04-16T17:50:39.600Z,3.93
2019-04-16T17:53:25.301Z,4.40
2019-04-16T17:56:11.607Z,4.40
2019-04-16T17:58:50.653Z,4.60
2019-04-16T18:01:37.169Z,4.63
2019-04-16T18:04:17.653Z,4.83
2019-04-16T18:07:05.389Z,3.87
2019-04-16T18:09:41.456Z,4.63
2019-04-16T18:12:41.557Z,4.10
2019-04-16T18:15:35.163Z,4.63
2019-04-16T18:18:31.816Z,4.60
2019-04-16T18:21:19.666Z,4.07
2019-04-16T18:24:16.600Z,4.17
2019-04-16T18:27:10.680Z,4.37
2019-04-16T18:29:50.600Z,4.43
2019-04-16T18:32:23.258Z,3.90
2019-04-16T18:35:16.572Z,3.97
2019-04-16T18:37:54.872Z,4.43
2019-04-16T18:40:48.843Z,3.80
2019-04-16T18:43:55.113Z,3.63
2019-04-16T18:46:51.799Z,3.33
2019-04-16T18:49:22.836Z,3.43
2019-04-16T18:51:52.045Z,3.57
2019-04-16T18:54:22.007Z,3.63
2019-04-16T18:56:50.877Z,3.27
2019-04-16T18:59:19.768Z,3.17
2019-04-16T19:01:51.059Z,4.13
2019-04-16T19:04:20.185Z,3.17
2019-04-16T19:06:49.122Z,3.10
2019-04-16T19:09:21.043Z,3.70
2019-04-16T19:11:49.853Z,3.33
2019-04-16T19:14:18.825Z,3.40
2019-04-16T19:16:47.834Z,3.30
2019-04-16T19:19:16.868Z,3.33
2019-04-16T19:21:51.282Z,3.30
2019-04-16T19:24:16.682Z,3.63
2019-04-16T19:26:45.711Z,3.77
2019-04-16T19:29:15.809Z,3.10
2019-04-16T19:31:44.805Z,3.87
2019-04-16T19:34:13.883Z,3.57
2019-04-16T19:36:43.114Z,3.47
2019-04-16T19:39:15.122Z,3.47
2019-04-16T19:41:42.974Z,2.97
2019-04-16T19:44:12.081Z,3.80
2019-04-16T19:46:41.197Z,3.30
2019-04-16T19:49:10.309Z,4.00
2019-04-16T19:51:41.271Z,3.20
2019-04-16T19:54:10.020Z,3.83
2019-04-16T19:56:40.156Z,3.50
2019-04-16T19:59:09.233Z,3.67
2019-04-16T20:01:45.038Z,3.20
2019-04-16T20:04:19.001Z,3.60
2019-04-16T20:06:48.107Z,3.63
2019-04-16T20:09:17.099Z,3.30
2019-04-16T20:11:46.028Z,3.47
2019-04-16T20:14:15.032Z,3.80
2019-04-16T20:16:47.826Z,3.17
2019-04-16T20:19:20.126Z,3.77
2019-04-16T20:21:49.755Z,3.27
2019-04-16T20:24:18.768Z,3.40
2019-04-16T20:26:47.771Z,3.77
2019-04-16T20:29:16.749Z,3.93
2019-04-16T20:31:45.749Z,3.40
2019-04-16T20:34:18.061Z,4.30
2019-04-16T20:36:46.983Z,4.03
2019-04-16T20:39:15.911Z,3.60
2019-04-16T20:41:44.841Z,3.87
2019-04-16T20:44:13.915Z,3.83
2019-04-16T20:46:44.921Z,3.77
2019-04-16T20:49:16.657Z,3.63
2019-04-16T20:51:44.562Z,3.17
2019-04-16T20:54:14.009Z,3.60
2019-04-16T20:56:43.145Z,3.57
2019-04-16T20:59:12.017Z,3.87
2019-04-16T21:01:40.887Z,3.67
2019-04-16T21:04:09.815Z,4.00
2019-04-16T21:06:41.889Z,4.00
2019-04-16T21:09:09.278Z,3.40
2019-04-16T21:11:41.038Z,4.00
2019-04-16T21:14:08.626Z,3.23
2019-04-16T21:16:37.514Z,3.47
2019-04-16T21:19:21.629Z,3.53
2019-04-16T21:21:38.872Z,3.40
2019-04-16T21:24:08.517Z,3.50
2019-04-16T21:26:37.955Z,3.40
2019-04-16T21:29:14.482Z,3.50
2019-04-16T21:31:46.606Z,3.97
2019-04-16T21:34:34.374Z,3.63
2019-04-16T21:37:21.090Z,3.60
2019-04-16T21:39:53.859Z,3.43
2019-04-16T21:42:22.669Z,3.50
2019-04-16T21:44:51.384Z,3.80
2019-04-16T21:47:23.175Z,3.93
2019-04-16T21:49:50.591Z,3.53
2019-04-16T21:52:24.848Z,3.57
2019-04-16T21:54:53.911Z,3.77
2019-04-16T21:57:22.648Z,3.70
2019-04-16T21:59:56.844Z,3.67
2019-04-16T22:02:24.584Z,3.33
2019-04-16T22:04:53.325Z,3.47
2019-04-16T22:07:24.647Z,4.20
2019-04-16T22:09:52.565Z,3.77
2019-04-16T22:12:21.360Z,3.63
2019-04-16T22:14:51.004Z,3.30
2019-04-16T22:17:20.598Z,3.47
2019-04-16T22:19:54.178Z,3.67
2019-04-16T22:22:19.828Z,3.50
2019-04-16T22:24:48.575Z,3.57
2019-04-16T22:27:17.347Z,3.83
2019-04-16T22:29:47.565Z,4.17
2019-04-16T22:32:16.604Z,3.70
2019-04-16T22:34:45.395Z,4.07
2019-04-16T22:37:14.159Z,3.97
2019-04-16T22:40:02.402Z,3.80
2019-04-16T22:42:50.343Z,3.70
2019-04-16T22:45:39.627Z,3.40
2019-04-16T22:48:08.754Z,3.40
2019-04-16T22:50:37.981Z,4.53
2019-04-16T22:53:07.804Z,3.80
2019-04-16T22:55:36.551Z,3.53
2019-04-16T22:58:05.417Z,3.57
2019-04-16T23:00:44.171Z,3.73
2019-04-16T23:03:10.941Z,3.90
2019-04-16T23:05:39.865Z,3.90
2019-04-16T23:08:08.838Z,3.70
2019-04-16T23:10:39.035Z,3.63
2019-04-16T23:13:07.752Z,3.67
2019-04-16T23:15:36.478Z,4.50
2019-04-16T23:18:05.204Z,4.40
2019-04-16T23:20:37.025Z,3.83
2019-04-16T23:23:04.442Z,3.60
2019-04-16T23:25:33.172Z,3.90
2019-04-16T23:28:01.882Z,4.10
2019-04-16T23:30:30.693Z,3.50
2019-04-16T23:33:01.381Z,3.67
2019-04-16T23:35:30.681Z,3.87
2019-04-16T23:38:00.979Z,3.33
2019-04-16T23:40:29.914Z,4.03
2019-04-16T23:43:18.766Z,4.17
2019-04-16T23:46:06.508Z,3.67
2019-04-16T23:48:54.755Z,3.87
2019-04-16T23:51:30.674Z,4.57
2019-04-16T23:54:12.169Z,3.43
2019-04-16T23:56:44.655Z,4.00
2019-04-16T23:59:27.324Z,4.07
